Terminal Aerodrome Forecast
Issued by NWS

Home | Current Version | Previous Version | Text Only | Print | Product List | Glossary On
Versions: 1 2 3 4 5 6 7 8 9 10 11 12 13 14 15 16 17 18 19
840
FTUS45 KTFX 250520
TAFGTF
TAF
KGTF 250520Z 2506/2606 VRB06KT P6SM -SHRA OVC040
     FM250800 01008KT 4SM -SHRA BR BKN010 OVC020
      TEMPO 2512/2515 2SM -SHRASN BR
     FM251600 32008KT P6SM -SHRA SCT008 OVC020
     FM252000 05005KT P6SM BKN025 PROB30 2521/2601 4SM -TSRA
      OVC015CB
     FM260500 20005KT P6SM SCT050 BKN110=

USA.gov is the U.S. government's official web portal to all federal, state and local government web resources and services.